createdAt,value
2023-04-01T00:00:17.595Z,0.00
2023-04-01T00:01:17.891Z,0.00
2023-04-01T00:02:17.612Z,0.00
2023-04-01T00:03:17.796Z,0.00
2023-04-01T00:04:17.618Z,0.00
2023-04-01T00:05:17.587Z,0.00
2023-04-01T00:06:17.591Z,0.00
2023-04-01T00:07:17.586Z,0.00
2023-04-01T00:08:17.584Z,0.00
2023-04-01T00:09:17.583Z,0.00
2023-04-01T00:10:17.578Z,0.00
2023-04-01T00:11:17.582Z,0.00
2023-04-01T00:12:17.583Z,0.00
2023-04-01T00:13:17.578Z,0.00
2023-04-01T00:14:17.586Z,0.00
2023-04-01T00:15:17.595Z,0.00
2023-04-01T00:16:22.190Z,0.00
2023-04-01T00:17:17.571Z,0.00
2023-04-01T00:18:17.563Z,0.00
2023-04-01T00:19:17.588Z,0.00
2023-04-01T00:20:17.564Z,0.00
2023-04-01T00:21:17.572Z,0.00
2023-04-01T00:22:17.555Z,0.00
2023-04-01T00:23:17.556Z,0.00
2023-04-01T00:24:17.566Z,0.00
2023-04-01T00:25:17.559Z,0.00
2023-04-01T00:26:17.563Z,0.00
2023-04-01T00:27:17.553Z,0.00
2023-04-01T00:28:17.551Z,0.00
2023-04-01T00:29:17.561Z,0.00
2023-04-01T00:30:17.544Z,0.00
2023-04-01T00:31:17.666Z,0.00
2023-04-01T00:32:17.542Z,0.00
2023-04-01T00:33:17.578Z,0.00
2023-04-01T00:34:17.537Z,0.00
2023-04-01T00:35:17.564Z,0.00
2023-04-01T00:36:17.552Z,0.00
2023-04-01T00:37:17.545Z,0.00
2023-04-01T00:38:17.540Z,0.00
2023-04-01T00:39:17.549Z,0.00
2023-04-01T00:40:17.535Z,0.00
2023-04-01T00:41:17.533Z,0.00
2023-04-01T00:42:17.533Z,0.00
2023-04-01T00:43:17.527Z,0.00
2023-04-01T00:44:17.532Z,0.00
2023-04-01T00:45:17.527Z,0.00
2023-04-01T00:46:17.556Z,0.00
2023-04-01T00:47:17.529Z,0.00
2023-04-01T00:48:17.518Z,0.00
2023-04-01T00:49:17.529Z,0.00
2023-04-01T00:50:17.517Z,0.00
2023-04-01T00:51:17.548Z,0.00
2023-04-01T00:52:17.520Z,0.00
2023-04-01T00:53:17.522Z,0.00
2023-04-01T00:54:17.508Z,0.00
2023-04-01T00:55:17.524Z,0.00
2023-04-01T00:56:17.512Z,0.00
2023-04-01T00:57:17.591Z,0.00
2023-04-01T00:58:17.505Z,0.00
2023-04-01T00:59:17.513Z,0.00
2023-04-01T01:00:17.505Z,0.00
2023-04-01T01:01:17.587Z,0.00
2023-04-01T01:02:17.533Z,0.00
2023-04-01T01:03:17.531Z,0.00
2023-04-01T01:04:17.501Z,0.00
2023-04-01T01:05:17.495Z,0.00
2023-04-01T01:06:17.490Z,0.00
2023-04-01T01:07:17.529Z,0.00
2023-04-01T01:08:17.486Z,0.00
2023-04-01T01:09:17.498Z,0.00
2023-04-01T01:10:17.486Z,0.00
2023-04-01T01:11:17.990Z,0.00
2023-04-01T01:12:17.487Z,0.00
2023-04-01T01:13:17.485Z,0.00
2023-04-01T01:14:17.476Z,0.00
2023-04-01T01:15:17.495Z,0.00
2023-04-01T01:16:17.499Z,0.00
2023-04-01T01:17:17.471Z,0.00
2023-04-01T01:18:17.509Z,0.00
2023-04-01T01:19:17.478Z,0.00
2023-04-01T01:20:25.980Z,0.00
2023-04-01T01:21:17.462Z,0.00
2023-04-01T01:22:17.466Z,0.00
2023-04-01T01:23:17.492Z,0.00
2023-04-01T01:24:17.459Z,0.00
2023-04-01T01:25:17.478Z,0.00
2023-04-01T01:26:17.461Z,0.00
2023-04-01T01:27:17.462Z,0.00
2023-04-01T01:28:17.454Z,0.00
2023-04-01T01:29:17.461Z,0.00
2023-04-01T01:30:17.450Z,0.00
2023-04-01T01:31:17.483Z,0.00
2023-04-01T01:32:17.445Z,0.00
2023-04-01T01:33:17.452Z,0.00
2023-04-01T01:34:17.448Z,0.00
2023-04-01T01:35:17.449Z,0.00
2023-04-01T01:36:17.452Z,0.00
2023-04-01T01:37:17.450Z,0.00
2023-04-01T01:38:17.434Z,0.00
2023-04-01T01:39:17.462Z,0.00
2023-04-01T01:40:17.429Z,0.00
2023-04-01T01:41:17.434Z,0.00
2023-04-01T01:42:17.428Z,0.00
2023-04-01T01:43:17.429Z,0.00
2023-04-01T01:44:17.427Z,0.00
2023-04-01T01:45:17.430Z,0.00
2023-04-01T01:46:17.502Z,0.00
2023-04-01T01:47:17.422Z,0.00
2023-04-01T01:48:17.429Z,0.00
2023-04-01T01:49:17.420Z,0.00
2023-04-01T01:50:17.412Z,0.00
2023-04-01T01:51:17.418Z,0.00
2023-04-01T01:52:17.408Z,0.00
2023-04-01T01:53:17.421Z,0.00
2023-04-01T01:54:17.406Z,0.00
2023-04-01T01:55:17.430Z,0.00
2023-04-01T01:56:17.406Z,0.00
2023-04-01T01:57:17.462Z,0.00
2023-04-01T01:58:17.407Z,0.00
2023-04-01T01:59:17.402Z,0.00
2023-04-01T02:00:17.414Z,0.00
2023-04-01T02:01:17.427Z,0.00
2023-04-01T02:02:17.394Z,0.00
2023-04-01T02:03:17.389Z,0.00
2023-04-01T02:04:17.436Z,0.00
2023-04-01T02:05:17.383Z,0.00
2023-04-01T02:06:17.389Z,0.00
2023-04-01T02:07:17.385Z,0.00
2023-04-01T02:08:17.409Z,0.00
2023-04-01T02:09:17.382Z,0.00
2023-04-01T02:10:17.381Z,0.00
2023-04-01T02:11:17.400Z,0.00
2023-04-01T02:12:17.377Z,0.00
2023-04-01T02:13:17.385Z,0.00
2023-04-01T02:14:17.394Z,0.00
2023-04-01T02:15:17.374Z,0.00
2023-04-01T02:16:17.405Z,0.00
2023-04-01T02:17:17.372Z,0.00
2023-04-01T02:18:17.369Z,0.00
2023-04-01T02:19:17.363Z,0.00
2023-04-01T02:20:17.368Z,0.00
2023-04-01T02:21:17.370Z,0.00
2023-04-01T02:22:17.373Z,0.00
2023-04-01T02:23:17.355Z,0.00
2023-04-01T02:24:17.356Z,0.00
2023-04-01T02:25:17.346Z,0.00
2023-04-01T02:26:17.367Z,0.00
2023-04-01T02:27:17.373Z,0.00
2023-04-01T02:28:17.364Z,0.00
2023-04-01T02:29:17.341Z,0.00
2023-04-01T02:30:17.343Z,0.00
2023-04-01T02:31:17.368Z,0.00
2023-04-01T02:32:17.351Z,0.00
2023-04-01T02:33:17.338Z,0.00
2023-04-01T02:34:17.357Z,0.00
2023-04-01T02:35:17.336Z,0.00
2023-04-01T02:36:17.386Z,0.00
2023-04-01T02:37:17.331Z,0.00
2023-04-01T02:38:17.340Z,0.00
2023-04-01T02:39:17.332Z,0.00
2023-04-01T02:40:17.326Z,0.00
2023-04-01T02:41:17.327Z,0.00
2023-04-01T02:42:17.344Z,0.00
2023-04-01T02:43:17.349Z,0.00
2023-04-01T02:44:17.322Z,0.00
2023-04-01T02:45:17.322Z,0.00
2023-04-01T02:46:17.385Z,0.00
2023-04-01T02:47:17.317Z,0.00
2023-04-01T02:48:17.320Z,0.00
2023-04-01T02:49:17.312Z,0.00
2023-04-01T02:50:17.320Z,0.00
2023-04-01T02:51:18.370Z,0.00
2023-04-01T02:52:17.318Z,0.00
2023-04-01T02:53:17.310Z,0.00
2023-04-01T02:54:17.311Z,0.00
2023-04-01T02:55:17.303Z,0.00
2023-04-01T02:56:17.306Z,0.00
2023-04-01T02:57:17.384Z,0.00
2023-04-01T02:58:17.301Z,0.00
2023-04-01T02:59:17.344Z,0.00
2023-04-01T03:00:17.333Z,0.00
2023-04-01T03:01:17.324Z,0.00
2023-04-01T03:02:17.326Z,0.00
2023-04-01T03:03:17.372Z,0.00
2023-04-01T03:04:17.292Z,0.00
2023-04-01T03:05:17.284Z,0.00
2023-04-01T03:06:17.301Z,0.00
2023-04-01T03:07:17.311Z,0.00
2023-04-01T03:08:17.290Z,0.00
2023-04-01T03:09:17.283Z,0.00
2023-04-01T03:10:17.280Z,0.00
2023-04-01T03:11:17.282Z,0.00
2023-04-01T03:12:17.282Z,0.00
2023-04-01T03:13:17.278Z,0.00
2023-04-01T03:14:17.277Z,0.00
2023-04-01T03:15:17.296Z,0.00
2023-04-01T03:16:17.304Z,0.00
2023-04-01T03:17:17.268Z,0.00
2023-04-01T03:18:17.272Z,0.00
2023-04-01T03:19:17.263Z,0.00
2023-04-01T03:20:17.272Z,0.00
2023-04-01T03:21:17.264Z,0.00
2023-04-01T03:22:17.258Z,0.00
2023-04-01T03:23:17.258Z,0.00
2023-04-01T03:24:17.257Z,0.00
2023-04-01T03:25:17.258Z,0.00
2023-04-01T03:26:17.269Z,0.00
2023-04-01T03:27:17.247Z,0.00
2023-04-01T03:28:17.251Z,0.00
2023-04-01T03:29:17.268Z,0.00
2023-04-01T03:30:17.304Z,0.00
2023-04-01T03:31:17.372Z,0.00
2023-04-01T03:32:17.243Z,0.00
2023-04-01T03:33:17.238Z,0.00
2023-04-01T03:34:17.239Z,0.00
2023-04-01T03:35:17.234Z,0.00
2023-04-01T03:36:17.276Z,0.00
2023-04-01T03:37:17.232Z,0.00
2023-04-01T03:38:17.234Z,0.00
2023-04-01T03:39:17.231Z,0.00
2023-04-01T03:40:17.232Z,0.00
2023-04-01T03:41:17.229Z,0.00
2023-04-01T03:42:17.229Z,0.00
2023-04-01T03:43:17.294Z,0.00
2023-04-01T03:44:17.226Z,0.00
2023-04-01T03:45:17.217Z,0.00
2023-04-01T03:46:17.241Z,0.00
2023-04-01T03:47:17.242Z,0.00
2023-04-01T03:48:17.219Z,0.00
2023-04-01T03:49:17.213Z,0.00
2023-04-01T03:50:17.214Z,0.00
2023-04-01T03:51:17.209Z,0.00
2023-04-01T03:52:17.209Z,0.00
2023-04-01T03:53:17.215Z,0.00
2023-04-01T03:54:17.216Z,0.00
2023-04-01T03:55:17.207Z,0.00
2023-04-01T03:56:17.210Z,0.00
2023-04-01T03:57:17.230Z,0.00
2023-04-01T03:58:17.202Z,0.00
2023-04-01T03:59:17.202Z,0.00
2023-04-01T04:00:17.203Z,0.00
2023-04-01T04:01:17.211Z,0.00
2023-04-01T04:02:17.215Z,0.00
2023-04-01T04:03:17.304Z,0.00
2023-04-01T04:04:17.225Z,0.00
2023-04-01T04:05:17.200Z,0.00
2023-04-01T04:06:17.191Z,0.00
2023-04-01T04:07:17.188Z,0.00
2023-04-01T04:08:17.190Z,0.00
2023-04-01T04:09:17.187Z,0.00
2023-04-01T04:10:59.726Z,0.00
2023-04-01T04:11:59.726Z,0.00
2023-04-01T04:12:59.735Z,0.00
2023-04-01T04:13:59.728Z,0.00
2023-04-01T04:16:22.412Z,0.00
2023-04-01T04:17:22.775Z,0.00
2023-04-01T04:18:25.994Z,0.00
2023-04-01T04:23:51.045Z,4.00
2023-04-01T04:27:36.286Z,8.00
2023-04-01T04:28:36.283Z,8.00
2023-04-01T04:29:36.292Z,12.00
2023-04-01T04:30:36.272Z,8.00
2023-04-01T04:31:36.314Z,12.00
2023-04-01T04:32:36.294Z,12.00
2023-04-01T04:33:36.318Z,16.00
2023-04-01T04:34:36.276Z,16.00
2023-04-01T04:35:36.298Z,20.00
2023-04-01T04:36:36.263Z,16.00
2023-04-01T04:37:36.257Z,20.00
2023-04-01T04:38:36.261Z,20.00
2023-04-01T04:39:36.265Z,24.00
2023-04-01T04:40:36.254Z,28.00
2023-04-01T04:41:37.708Z,28.00
2023-04-01T04:42:36.255Z,28.00
2023-04-01T04:43:36.247Z,28.00
2023-04-01T04:44:36.253Z,32.00
2023-04-01T04:45:36.247Z,32.00
2023-04-01T04:46:36.269Z,40.00
2023-04-01T04:47:36.274Z,40.00
2023-04-01T04:48:36.242Z,48.00
2023-04-01T04:49:36.273Z,52.00
2023-04-01T04:50:36.237Z,68.00
2023-04-01T04:51:36.236Z,72.00
2023-04-01T04:52:36.237Z,68.00
2023-04-01T04:53:36.242Z,72.00
2023-04-01T04:54:36.239Z,84.00
2023-04-01T04:55:36.231Z,80.00
2023-04-01T04:56:36.247Z,96.00
2023-04-01T04:57:36.284Z,116.00
2023-04-01T04:58:36.227Z,124.00
2023-04-01T04:59:36.226Z,140.00
2023-04-01T05:00:36.235Z,144.00
2023-04-01T05:01:36.271Z,148.00
2023-04-01T05:02:36.356Z,148.00
2023-04-01T05:03:36.329Z,152.00
2023-04-01T05:04:36.222Z,164.00
2023-04-01T05:05:36.237Z,156.00
2023-04-01T05:06:36.209Z,152.00
2023-04-01T05:07:36.208Z,148.00
2023-04-01T05:08:36.207Z,168.00
2023-04-01T05:09:36.218Z,176.00
2023-04-01T05:10:36.204Z,164.00
2023-04-01T05:11:36.211Z,172.00
2023-04-01T05:12:36.209Z,188.00
2023-04-01T05:13:36.203Z,208.00
2023-04-01T05:14:36.200Z,184.00
2023-04-01T05:15:36.196Z,168.00
2023-04-01T05:16:36.214Z,168.00
2023-04-01T05:17:36.229Z,180.00
2023-04-01T05:18:36.192Z,220.00
2023-04-01T05:19:36.200Z,236.00
2023-04-01T05:20:36.268Z,236.00
2023-04-01T05:21:36.212Z,228.00
2023-04-01T05:22:36.189Z,216.00
2023-04-01T05:23:36.191Z,224.00
2023-04-01T05:24:36.185Z,236.00
2023-04-01T05:25:36.184Z,248.00
2023-04-01T05:26:36.182Z,260.00
2023-04-01T05:27:36.183Z,252.00
2023-04-01T05:28:36.180Z,252.00
2023-04-01T05:29:36.173Z,240.00
2023-04-01T05:30:36.221Z,260.00
2023-04-01T05:31:36.187Z,312.00
2023-04-01T05:32:36.212Z,344.00
2023-04-01T05:33:36.176Z,344.00
2023-04-01T05:34:36.168Z,368.00
2023-04-01T05:35:36.400Z,360.00
2023-04-01T05:36:36.169Z,316.00
2023-04-01T05:37:36.189Z,380.00
2023-04-01T05:38:36.164Z,416.00
2023-04-01T05:39:36.171Z,408.00
2023-04-01T05:40:36.162Z,388.00
2023-04-01T05:41:36.164Z,372.00
2023-04-01T05:42:37.717Z,380.00
2023-04-01T05:43:36.161Z,360.00
2023-04-01T05:44:36.152Z,352.00
2023-04-01T05:45:36.158Z,344.00
2023-04-01T05:46:36.243Z,360.00
2023-04-01T05:47:36.201Z,352.00
2023-04-01T05:48:36.174Z,356.00
2023-04-01T05:49:36.156Z,356.00
2023-04-01T05:50:36.148Z,344.00
2023-04-01T05:51:36.151Z,340.00
2023-04-01T05:52:36.158Z,344.00
2023-04-01T05:53:36.161Z,356.00
2023-04-01T05:54:36.141Z,364.00
2023-04-01T05:55:36.143Z,372.00
2023-04-01T05:56:36.137Z,392.00
2023-04-01T05:57:36.234Z,412.00
2023-04-01T05:58:36.132Z,432.00
2023-04-01T05:59:36.135Z,448.00
2023-04-01T06:00:36.131Z,436.00
2023-04-01T06:01:36.131Z,440.00
2023-04-01T06:02:36.185Z,452.00
2023-04-01T06:03:36.252Z,460.00
2023-04-01T06:04:36.163Z,456.00
2023-04-01T06:05:36.124Z,456.00
2023-04-01T06:06:36.125Z,480.00
2023-04-01T06:07:36.123Z,504.00
2023-04-01T06:08:36.118Z,508.00
2023-04-01T06:09:36.137Z,500.00
2023-04-01T06:10:36.114Z,476.00
2023-04-01T06:11:36.114Z,452.00
2023-04-01T06:12:36.112Z,432.00
2023-04-01T06:13:36.115Z,444.00
2023-04-01T06:14:36.106Z,500.00
2023-04-01T06:15:36.109Z,552.00
2023-04-01T06:16:36.136Z,608.00
2023-04-01T06:17:36.122Z,656.00
2023-04-01T06:18:36.115Z,664.00
2023-04-01T06:19:36.116Z,628.00
2023-04-01T06:20:36.121Z,604.00
2023-04-01T06:21:36.152Z,596.00
2023-04-01T06:22:36.108Z,616.00
2023-04-01T06:23:36.104Z,668.00
2023-04-01T06:24:36.119Z,712.00
2023-04-01T06:25:36.330Z,732.00
2023-04-01T06:26:36.093Z,724.00
2023-04-01T06:27:36.103Z,728.00
2023-04-01T06:28:36.089Z,712.00
2023-04-01T06:29:36.124Z,724.00
2023-04-01T06:30:36.120Z,792.00
2023-04-01T06:31:36.131Z,920.00
2023-04-01T06:32:36.159Z,1048.00
2023-04-01T06:33:36.096Z,1164.00
2023-04-01T06:34:36.075Z,1312.00
2023-04-01T06:35:36.437Z,1452.00
2023-04-01T06:36:36.154Z,1428.00
2023-04-01T06:37:36.096Z,1272.00
2023-04-01T06:38:36.075Z,1212.00
2023-04-01T06:39:36.082Z,1240.00
2023-04-01T06:40:36.079Z,1260.00
2023-04-01T06:41:36.102Z,1292.00
2023-04-01T06:42:36.070Z,1356.00
2023-04-01T06:43:36.075Z,1380.00
2023-04-01T06:44:36.074Z,1336.00
2023-04-01T06:45:36.404Z,1388.00
2023-04-01T06:46:36.063Z,1472.00
2023-04-01T06:47:36.114Z,1552.00
2023-04-01T06:48:36.069Z,1612.00
2023-04-01T06:49:36.063Z,1788.00
2023-04-01T06:50:36.058Z,1920.00
2023-04-01T06:51:36.062Z,2124.00
2023-04-01T06:52:36.057Z,2288.00
2023-04-01T06:53:36.067Z,2328.00
2023-04-01T06:54:36.056Z,2352.00
2023-04-01T06:55:36.059Z,2512.00
2023-04-01T06:56:36.055Z,2668.00
2023-04-01T06:57:36.083Z,2572.00
2023-04-01T06:58:36.049Z,2756.00
2023-04-01T06:59:36.083Z,2784.00
2023-04-01T07:00:36.065Z,2828.00
2023-04-01T07:01:36.071Z,2712.00
2023-04-01T07:02:36.072Z,2688.00
2023-04-01T07:03:36.054Z,2696.00
2023-04-01T07:04:36.102Z,2552.00
2023-04-01T07:05:36.040Z,2644.00
2023-04-01T07:06:36.034Z,2688.00
2023-04-01T07:13:53.550Z,2860.00
2023-04-01T07:14:53.525Z,2900.00
2023-04-01T07:17:36.857Z,3000.00
2023-04-01T07:19:54.447Z,2832.00
2023-04-01T07:20:54.440Z,2676.00
2023-04-01T07:21:54.434Z,2548.00
2023-04-01T07:22:54.429Z,2232.00
2023-04-01T07:23:54.429Z,1992.00
2023-04-01T07:44:39.139Z,2272.00
2023-04-01T07:46:30.892Z,2020.00
2023-04-01T07:47:30.920Z,2028.00
2023-04-01T07:48:30.873Z,2076.00
2023-04-01T07:49:30.871Z,2152.00
2023-04-01T07:50:30.881Z,2196.00
2023-04-01T07:51:30.866Z,2136.00
2023-04-01T07:52:30.878Z,2008.00
2023-04-01T07:53:30.870Z,1820.00
2023-04-01T07:54:30.862Z,1568.00
2023-04-01T08:00:15.098Z,2344.00
2023-04-01T08:02:17.689Z,2364.00
2023-04-01T08:03:18.076Z,1932.00
2023-04-01T08:04:17.743Z,1348.00
2023-04-01T08:05:17.646Z,1556.00
2023-04-01T08:06:17.653Z,1700.00
2023-04-01T08:07:17.646Z,2132.00
2023-04-01T08:08:17.644Z,2452.00
2023-04-01T08:09:17.647Z,2776.00
2023-04-01T08:10:17.642Z,3088.00
2023-04-01T08:11:17.662Z,3320.00
2023-04-01T08:12:17.638Z,3412.00
2023-04-01T08:13:17.777Z,3260.00
2023-04-01T08:14:17.634Z,3368.00
2023-04-01T08:15:17.635Z,3588.00
2023-04-01T08:16:17.738Z,3816.00
2023-04-01T08:17:17.641Z,3808.00
2023-04-01T08:18:17.664Z,3908.00
2023-04-01T08:19:17.627Z,3664.00
2023-04-01T08:20:17.629Z,3940.00
2023-04-01T08:21:17.625Z,3960.00
2023-04-01T08:22:17.624Z,3928.00
2023-04-01T08:23:17.617Z,4252.00
2023-04-01T08:24:17.621Z,4416.00
2023-04-01T08:25:17.616Z,4656.00
2023-04-01T08:26:17.616Z,4532.00
2023-04-01T08:27:17.612Z,4164.00
2023-04-01T08:28:17.616Z,4152.00
2023-04-01T08:29:17.612Z,4220.00
2023-04-01T08:30:17.626Z,4236.00
2023-04-01T08:31:17.617Z,4104.00
2023-04-01T08:32:17.635Z,3888.00
2023-04-01T08:33:17.611Z,3976.00
2023-04-01T08:34:17.630Z,4108.00
2023-04-01T08:35:17.611Z,4200.00
2023-04-01T08:36:17.662Z,3864.00
2023-04-01T08:37:17.600Z,4016.00
2023-04-01T08:38:17.599Z,3904.00
2023-04-01T08:39:17.602Z,3660.00
2023-04-01T08:40:17.599Z,3536.00
2023-04-01T08:41:17.601Z,3832.00
2023-04-01T08:42:17.596Z,3828.00
2023-04-01T08:43:17.594Z,3720.00
2023-04-01T08:44:17.598Z,3700.00
2023-04-01T08:45:17.594Z,3772.00
2023-04-01T08:46:17.643Z,3648.00
2023-04-01T08:47:17.586Z,3580.00
2023-04-01T08:48:17.615Z,3456.00
2023-04-01T08:49:17.585Z,3312.00
2023-04-01T08:50:17.588Z,3568.00
2023-04-01T08:51:17.629Z,3824.00
2023-04-01T08:52:17.587Z,3824.00
2023-04-01T08:53:17.581Z,4172.00
2023-04-01T08:54:17.579Z,3924.00
2023-04-01T08:55:17.586Z,4228.00
2023-04-01T08:56:17.583Z,3756.00
2023-04-01T08:57:17.686Z,4484.00
2023-04-01T08:58:17.576Z,4492.00
2023-04-01T08:59:17.573Z,3544.00
2023-04-01T09:00:17.576Z,3732.00
2023-04-01T09:01:17.573Z,3800.00
2023-04-01T09:02:17.612Z,3484.00
2023-04-01T09:03:17.636Z,3468.00
2023-04-01T09:04:17.656Z,3660.00
2023-04-01T09:05:17.570Z,3864.00
2023-04-01T09:06:17.574Z,3800.00
2023-04-01T09:07:17.567Z,4024.00
2023-04-01T09:08:17.573Z,3992.00
2023-04-01T09:09:17.562Z,4236.00
2023-04-01T09:10:17.569Z,4044.00
2023-04-01T09:11:17.559Z,4264.00
2023-04-01T09:12:17.558Z,3980.00
2023-04-01T09:13:17.564Z,3892.00
2023-04-01T09:14:17.561Z,3912.00
2023-04-01T09:15:17.554Z,4044.00
2023-04-01T09:16:17.605Z,3956.00
2023-04-01T09:17:17.551Z,4248.00
2023-04-01T09:18:17.553Z,4024.00
2023-04-01T09:19:17.562Z,4512.00
2023-04-01T09:20:17.573Z,4348.00
2023-04-01T09:21:17.548Z,3988.00
2023-04-01T09:22:17.549Z,4304.00
2023-04-01T09:23:17.546Z,4408.00
2023-04-01T09:24:17.552Z,4216.00
2023-04-01T09:25:17.557Z,4648.00
2023-04-01T09:26:17.551Z,4428.00
2023-04-01T09:27:17.589Z,4332.00
2023-04-01T09:28:17.548Z,4064.00
2023-04-01T09:29:17.555Z,4176.00
2023-04-01T09:30:17.548Z,3904.00
2023-04-01T09:31:17.578Z,4256.00
2023-04-01T09:32:17.545Z,3924.00
2023-04-01T09:33:17.547Z,4288.00
2023-04-01T09:34:17.547Z,3784.00
2023-04-01T09:35:17.538Z,3884.00
2023-04-01T09:36:17.619Z,3848.00
2023-04-01T09:37:17.544Z,3592.00
2023-04-01T09:38:17.543Z,3656.00
2023-04-01T09:39:17.535Z,3936.00
2023-04-01T09:40:17.546Z,3728.00
2023-04-01T09:41:17.534Z,4072.00
2023-04-01T09:42:17.533Z,3808.00
2023-04-01T09:43:17.541Z,4040.00
2023-04-01T09:44:17.529Z,4116.00
2023-04-01T09:45:17.525Z,4408.00
2023-04-01T09:46:17.577Z,4676.00
2023-04-01T09:47:17.526Z,4672.00
2023-04-01T09:48:17.535Z,5084.00
2023-04-01T09:49:17.529Z,4412.00
2023-04-01T09:50:17.528Z,4724.00
2023-04-01T09:51:17.522Z,4836.00
2023-04-01T09:52:17.551Z,4628.00
2023-04-01T09:53:17.521Z,4660.00
2023-04-01T09:54:17.519Z,4192.00
2023-04-01T09:55:17.512Z,4412.00
2023-04-01T09:56:17.516Z,4064.00
2023-04-01T09:57:17.677Z,4064.00
2023-04-01T09:58:17.522Z,4264.00
2023-04-01T09:59:17.511Z,4332.00
2023-04-01T10:00:17.509Z,4052.00
2023-04-01T10:01:17.553Z,3924.00
2023-04-01T10:02:17.511Z,3724.00
2023-04-01T10:03:17.501Z,3412.00
2023-04-01T10:04:17.506Z,3516.00
2023-04-01T10:05:17.524Z,3860.00
2023-04-01T10:06:17.561Z,3692.00
2023-04-01T10:07:17.512Z,3712.00
2023-04-01T10:08:17.518Z,3952.00
2023-04-01T10:09:17.495Z,4088.00
2023-04-01T10:10:17.646Z,4004.00
2023-04-01T10:11:17.491Z,4120.00
2023-04-01T10:12:17.629Z,4212.00
2023-04-01T10:13:17.491Z,4116.00
2023-04-01T10:14:17.498Z,4400.00
2023-04-01T10:15:17.506Z,4584.00
2023-04-01T10:16:17.536Z,4188.00
2023-04-01T10:17:17.487Z,4208.00
2023-04-01T10:18:17.522Z,4228.00
2023-04-01T10:19:17.531Z,4196.00
2023-04-01T10:20:17.543Z,4404.00
2023-04-01T10:21:17.481Z,4140.00
2023-04-01T10:22:17.487Z,4088.00
2023-04-01T10:23:17.482Z,4252.00
2023-04-01T10:24:17.500Z,4448.00
2023-04-01T10:25:17.501Z,4264.00
2023-04-01T10:26:17.476Z,4140.00
2023-04-01T10:27:17.473Z,3676.00
2023-04-01T10:28:17.471Z,3644.00
2023-04-01T10:29:17.752Z,4104.00
2023-04-01T10:30:17.472Z,3976.00
2023-04-01T10:31:17.487Z,4184.00
2023-04-01T10:32:17.492Z,4152.00
2023-04-01T10:33:17.475Z,4080.00
2023-04-01T10:34:17.470Z,4164.00
2023-04-01T10:35:17.469Z,4168.00
2023-04-01T10:36:17.557Z,4080.00
2023-04-01T10:37:17.469Z,3920.00
2023-04-01T10:38:17.465Z,4016.00
2023-04-01T10:39:17.456Z,4680.00
2023-04-01T10:40:17.505Z,4844.00
2023-04-01T10:41:17.478Z,4556.00
2023-04-01T10:42:17.454Z,4612.00
2023-04-01T10:43:17.464Z,3964.00
2023-04-01T10:44:17.456Z,3008.00
2023-04-01T10:45:17.457Z,3860.00
2023-04-01T10:46:17.608Z,4732.00
2023-04-01T10:47:17.478Z,3940.00
2023-04-01T10:48:17.453Z,4112.00
2023-04-01T10:49:17.445Z,5112.00
2023-04-01T10:50:17.452Z,5652.00
2023-04-01T10:51:17.444Z,5816.00
2023-04-01T10:52:17.452Z,6192.00
2023-04-01T10:53:17.441Z,5844.00
2023-04-01T10:54:17.470Z,5524.00
2023-04-01T10:55:17.442Z,5792.00
2023-04-01T10:56:17.462Z,5324.00
2023-04-01T10:57:17.495Z,5192.00
2023-04-01T10:58:17.444Z,5108.00
2023-04-01T10:59:17.439Z,4936.00
2023-04-01T11:00:17.439Z,5184.00
2023-04-01T11:01:17.485Z,5068.00
2023-04-01T11:02:17.486Z,5688.00
2023-04-01T11:03:17.542Z,6028.00
2023-04-01T11:04:17.436Z,6100.00
2023-04-01T11:05:20.211Z,5896.00
2023-04-01T11:06:17.441Z,6408.00
2023-04-01T11:07:17.428Z,6252.00
2023-04-01T11:08:17.429Z,5688.00
2023-04-01T11:09:17.432Z,5964.00
2023-04-01T11:10:17.424Z,5568.00
2023-04-01T11:11:17.429Z,5128.00
2023-04-01T11:12:17.449Z,5872.00
2023-04-01T11:13:17.420Z,6160.00
2023-04-01T11:14:17.426Z,6548.00
2023-04-01T11:15:17.416Z,5472.00
2023-04-01T11:16:18.610Z,5912.00
2023-04-01T11:17:17.433Z,6108.00
2023-04-01T11:18:17.421Z,6588.00
2023-04-01T11:19:17.413Z,6508.00
2023-04-01T11:20:17.418Z,6060.00
2023-04-01T11:21:17.408Z,5928.00
2023-04-01T11:22:17.413Z,6084.00
2023-04-01T11:23:17.407Z,5640.00
2023-04-01T11:24:17.410Z,5268.00
2023-04-01T11:25:17.409Z,5764.00
2023-04-01T11:26:17.407Z,6016.00
2023-04-01T11:27:17.479Z,5808.00
2023-04-01T11:28:17.427Z,5492.00
2023-04-01T11:29:17.401Z,5296.00
2023-04-01T11:30:17.408Z,4596.00
2023-04-01T11:31:17.448Z,3976.00
2023-04-01T11:32:17.406Z,3952.00
2023-04-01T11:33:20.058Z,4656.00
2023-04-01T11:34:17.395Z,4404.00
2023-04-01T11:35:17.392Z,4532.00
2023-04-01T11:36:17.483Z,4284.00
2023-04-01T11:37:17.390Z,4132.00
2023-04-01T11:38:17.397Z,3988.00
2023-04-01T11:39:17.390Z,3912.00
2023-04-01T11:40:17.391Z,3672.00
2023-04-01T11:41:17.390Z,3756.00
2023-04-01T11:42:17.388Z,3768.00
2023-04-01T11:43:30.078Z,3900.00
2023-04-01T11:44:17.425Z,4000.00
2023-04-01T11:45:17.381Z,4484.00
2023-04-01T11:46:17.429Z,4600.00
2023-04-01T11:47:17.381Z,4852.00
2023-04-01T11:48:17.377Z,4728.00
2023-04-01T11:49:17.374Z,4544.00
2023-04-01T11:50:17.376Z,4080.00
2023-04-01T11:51:17.388Z,3820.00
2023-04-01T11:52:17.385Z,3748.00
2023-04-01T11:53:17.368Z,3912.00
2023-04-01T11:54:17.372Z,3492.00
2023-04-01T11:55:17.379Z,3764.00
2023-04-01T11:56:17.376Z,3832.00
2023-04-01T11:57:17.436Z,4088.00
2023-04-01T11:58:17.366Z,4120.00
2023-04-01T11:59:17.364Z,4096.00
2023-04-01T12:00:17.396Z,4112.00
2023-04-01T12:01:17.356Z,3940.00
2023-04-01T12:02:19.299Z,4000.00
2023-04-01T12:03:17.657Z,3956.00
2023-04-01T12:04:17.417Z,3516.00
2023-04-01T12:05:17.353Z,3404.00
2023-04-01T12:06:17.355Z,3724.00
2023-04-01T12:07:17.364Z,3812.00
2023-04-01T12:08:17.355Z,3620.00
2023-04-01T12:09:17.349Z,3864.00
2023-04-01T12:10:17.351Z,3980.00
2023-04-01T12:11:17.357Z,4012.00
2023-04-01T12:12:17.358Z,4192.00
2023-04-01T12:13:17.342Z,4272.00
2023-04-01T12:14:17.349Z,3932.00
2023-04-01T12:15:17.348Z,3676.00
2023-04-01T12:16:17.410Z,3756.00
2023-04-01T12:17:17.342Z,3716.00
2023-04-01T12:18:17.339Z,3464.00
2023-04-01T12:19:17.337Z,3400.00
2023-04-01T12:20:17.336Z,3500.00
2023-04-01T12:21:17.340Z,3500.00
2023-04-01T12:22:17.340Z,3652.00
2023-04-01T12:23:17.331Z,3684.00
2023-04-01T12:24:17.328Z,3592.00
2023-04-01T12:25:17.342Z,3764.00
2023-04-01T12:26:17.320Z,3508.00
2023-04-01T12:27:17.326Z,3628.00
2023-04-01T12:28:17.323Z,3968.00
2023-04-01T12:29:17.326Z,4244.00
2023-04-01T12:30:17.317Z,4268.00
2023-04-01T12:31:17.325Z,4056.00
2023-04-01T12:32:17.420Z,3900.00
2023-04-01T12:33:17.328Z,4012.00
2023-04-01T12:34:17.312Z,4192.00
2023-04-01T12:35:17.327Z,4264.00
2023-04-01T12:36:17.307Z,4548.00
2023-04-01T12:37:17.309Z,4468.00
2023-04-01T12:38:17.880Z,3892.00
2023-04-01T12:39:17.308Z,3948.00
2023-04-01T12:40:17.304Z,3948.00
2023-04-01T12:41:17.305Z,3816.00
2023-04-01T12:42:17.300Z,3844.00
2023-04-01T12:43:17.306Z,4544.00
2023-04-01T12:44:17.301Z,4788.00
2023-04-01T12:45:17.298Z,4944.00
2023-04-01T12:46:17.328Z,5188.00
2023-04-01T12:47:17.296Z,4684.00
2023-04-01T12:48:17.324Z,4156.00
2023-04-01T12:49:17.307Z,4292.00
2023-04-01T12:50:17.308Z,4608.00
2023-04-01T12:51:17.294Z,4744.00
2023-04-01T12:52:17.284Z,4760.00
2023-04-01T12:53:17.288Z,5264.00
2023-04-01T12:54:17.288Z,5860.00
2023-04-01T12:55:17.283Z,5908.00
2023-04-01T12:56:17.275Z,5936.00
2023-04-01T12:57:17.332Z,5716.00
2023-04-01T12:58:17.276Z,5320.00
2023-04-01T12:59:17.280Z,5292.00
2023-04-01T13:00:17.276Z,5056.00
2023-04-01T13:01:17.381Z,4520.00
2023-04-01T13:02:17.267Z,4516.00
2023-04-01T13:03:17.273Z,4476.00
2023-04-01T13:04:17.326Z,4624.00
2023-04-01T13:05:17.270Z,4692.00
2023-04-01T13:06:19.128Z,4920.00
2023-04-01T13:07:17.262Z,4372.00
2023-04-01T13:08:17.276Z,3896.00
2023-04-01T13:09:17.259Z,3620.00
2023-04-01T13:10:17.261Z,3476.00
2023-04-01T13:11:17.257Z,3772.00
2023-04-01T13:12:17.350Z,4864.00
2023-04-01T13:13:17.304Z,4560.00
2023-04-01T13:14:29.171Z,3892.00
2023-04-01T13:15:17.256Z,3564.00
2023-04-01T13:16:17.289Z,3776.00
2023-04-01T13:17:17.252Z,4084.00
2023-04-01T13:18:17.247Z,3992.00
2023-04-01T13:19:17.250Z,3612.00